createdAt,value
2018-09-19T00:00:16.401Z,101142.95
2018-09-19T00:03:20.620Z,101148.45
2018-09-19T00:06:24.833Z,101140.74
2018-09-19T00:09:29.045Z,101146.80
2018-09-19T00:12:33.294Z,101145.37
2018-09-19T00:15:37.547Z,101142.34
2018-09-19T00:18:41.788Z,101144.77
2018-09-19T00:21:45.980Z,101145.83
2018-09-19T00:24:50.202Z,101153.80
2018-09-19T00:27:54.445Z,101159.76
2018-09-19T00:30:58.661Z,101166.09
2018-09-19T00:34:02.884Z,101161.64
2018-09-19T00:37:07.141Z,101150.86
2018-09-19T00:40:12.159Z,101152.23
2018-09-19T00:43:16.398Z,101160.45
2018-09-19T00:46:20.603Z,101165.66
2018-09-19T00:49:24.820Z,101166.22
2018-09-19T00:52:29.056Z,101166.20
2018-09-19T00:55:33.303Z,101157.70
2018-09-19T00:58:37.503Z,101157.45
2018-09-19T01:01:41.724Z,101169.02
2018-09-19T01:04:45.997Z,101170.59
2018-09-19T01:07:50.181Z,101171.37
2018-09-19T01:10:54.396Z,101168.36
2018-09-19T01:13:58.641Z,101175.80
2018-09-19T01:17:02.866Z,101172.46
2018-09-19T01:20:07.192Z,101176.33
2018-09-19T01:23:11.411Z,101173.32
2018-09-19T01:26:15.642Z,101180.19
2018-09-19T01:29:19.889Z,101182.91
2018-09-19T01:32:24.112Z,101179.60
2018-09-19T01:35:28.355Z,101191.68
2018-09-19T01:38:32.553Z,101191.36
2018-09-19T01:41:36.791Z,101197.43
2018-09-19T01:44:41.016Z,101199.00
2018-09-19T01:47:45.249Z,101209.69
2018-09-19T01:50:49.462Z,101206.69
2018-09-19T01:53:53.698Z,101202.58
2018-09-19T01:56:57.923Z,101209.64
2018-09-19T02:00:02.142Z,101211.58
2018-09-19T02:03:06.350Z,101210.72
2018-09-19T02:06:10.565Z,101210.41
2018-09-19T02:09:14.805Z,101216.66
2018-09-19T02:12:19.041Z,101217.93
2018-09-19T02:15:23.269Z,101220.57
2018-09-19T02:18:27.487Z,101220.74
2018-09-19T02:21:31.745Z,101219.27
2018-09-19T02:24:35.949Z,101227.97
2018-09-19T02:27:40.284Z,101224.64
2018-09-19T02:30:44.501Z,101229.03
2018-09-19T02:33:48.725Z,101230.40
2018-09-19T02:36:52.961Z,101227.91
2018-09-19T02:39:57.168Z,101226.52
2018-09-19T02:43:01.405Z,101232.25
2018-09-19T02:46:05.598Z,101231.72
2018-09-19T02:49:09.817Z,101237.45
2018-09-19T02:52:14.042Z,101241.84
2018-09-19T02:55:18.322Z,101240.98
2018-09-19T02:58:22.525Z,101237.06
2018-09-19T03:01:26.733Z,101238.68
2018-09-19T03:04:30.953Z,101244.67
2018-09-19T03:07:35.174Z,101243.55
2018-09-19T03:10:39.384Z,101247.72
2018-09-19T03:13:43.601Z,101247.10
2018-09-19T03:16:47.817Z,101242.90
2018-09-19T03:19:52.042Z,101245.98
2018-09-19T03:22:56.290Z,101250.72
2018-09-19T03:26:00.484Z,101251.86
2018-09-19T03:29:04.741Z,101251.61
2018-09-19T03:32:08.971Z,101252.55
2018-09-19T03:35:13.261Z,101253.91
2018-09-19T03:38:17.436Z,101255.03
2018-09-19T03:41:21.705Z,101260.55
2018-09-19T03:44:25.910Z,101254.28
2018-09-19T03:47:30.173Z,101265.56
2018-09-19T03:50:34.400Z,101253.56
2018-09-19T03:53:38.626Z,101254.70
2018-09-19T03:56:42.814Z,101255.91
2018-09-19T03:59:47.046Z,101257.05
2018-09-19T04:02:51.258Z,101249.94
2018-09-19T04:05:55.488Z,101258.51
2018-09-19T04:08:59.704Z,101260.47
2018-09-19T04:12:03.960Z,101260.49
2018-09-19T04:15:08.192Z,101259.12
2018-09-19T04:18:12.418Z,101261.08
2018-09-19T04:21:16.673Z,101266.57
2018-09-19T04:24:20.883Z,101262.55
2018-09-19T04:27:25.152Z,101266.42
2018-09-19T04:30:29.381Z,101261.75
2018-09-19T04:33:33.621Z,101268.41
2018-09-19T04:36:37.834Z,101259.91
2018-09-19T04:39:42.061Z,101266.77
2018-09-19T04:42:46.269Z,101276.44
2018-09-19T04:45:50.530Z,101270.39
2018-09-19T04:48:54.781Z,101268.72
2018-09-19T04:51:58.992Z,101261.27
2018-09-19T04:55:03.967Z,101261.34
2018-09-19T04:58:08.185Z,101269.07
2018-09-19T05:01:12.384Z,101263.34
2018-09-19T05:04:16.593Z,101263.95
2018-09-19T05:07:20.850Z,101259.79
2018-09-19T05:10:25.022Z,101262.30
2018-09-19T05:13:29.217Z,101254.32
2018-09-19T05:16:33.448Z,101253.22
2018-09-19T05:19:37.658Z,101248.84
2018-09-19T05:22:41.904Z,101253.53
2018-09-19T05:25:46.105Z,101255.58
2018-09-19T05:28:50.478Z,101241.88
2018-09-19T05:31:54.701Z,101251.48
2018-09-19T05:34:58.920Z,101259.48
2018-09-19T05:38:03.125Z,101259.80
2018-09-19T05:41:07.661Z,101250.99
2018-09-19T05:44:11.859Z,101249.62
2018-09-19T05:47:16.076Z,101244.97
2018-09-19T05:50:20.264Z,101246.85
2018-09-19T05:53:24.467Z,101250.53
2018-09-19T05:56:28.669Z,101248.11
2018-09-19T05:59:32.858Z,101243.15
2018-09-19T06:02:37.082Z,101242.30
2018-09-19T06:05:41.333Z,101239.81
2018-09-19T06:08:45.544Z,101240.33
2018-09-19T06:11:49.781Z,101232.93
2018-09-19T06:14:53.989Z,101234.56
2018-09-19T06:17:58.225Z,101232.07
2018-09-19T06:21:02.433Z,101237.52
2018-09-19T06:24:06.829Z,101239.98
2018-09-19T06:27:11.076Z,101245.72
2018-09-19T06:30:15.326Z,101255.61
2018-09-19T06:33:19.564Z,101258.34
2018-09-19T06:36:23.754Z,101259.70
2018-09-19T06:39:27.955Z,101267.45
2018-09-19T06:42:32.177Z,101276.53
2018-09-19T06:45:36.461Z,101270.78
2018-09-19T06:48:40.644Z,101273.27
2018-09-19T06:51:44.889Z,101283.44
2018-09-19T06:54:49.131Z,101287.80
2018-09-19T06:57:53.895Z,101291.68
2018-09-19T07:00:59.312Z,101281.20
2018-09-19T07:04:03.796Z,101283.93
2018-09-19T07:07:08.146Z,101283.09
2018-09-19T07:10:13.619Z,101286.70
2018-09-19T07:13:18.038Z,101284.86
2018-09-19T07:16:22.525Z,101283.52
2018-09-19T07:19:28.031Z,101292.61
2018-09-19T07:22:32.452Z,101298.16
2018-09-19T07:25:36.851Z,101299.28
2018-09-19T07:28:41.376Z,101320.51
2018-09-19T07:31:45.873Z,101305.70
2018-09-19T07:34:50.205Z,101318.88
2018-09-19T07:37:54.700Z,101324.09
2018-09-19T07:40:59.045Z,101310.08
2018-09-19T07:44:03.511Z,101321.30
2018-09-19T07:47:07.942Z,101323.84
2018-09-19T07:50:12.260Z,101324.87
2018-09-19T07:53:16.635Z,101326.34
2018-09-19T07:56:21.258Z,101326.93
2018-09-19T07:59:25.615Z,101319.49
2018-09-19T08:02:30.438Z,101320.75
2018-09-19T08:05:34.887Z,101330.06
2018-09-19T08:08:39.658Z,101328.00
2018-09-19T08:11:44.095Z,101337.46
2018-09-19T08:14:48.545Z,101325.27
2018-09-19T08:17:52.946Z,101328.13
2018-09-19T08:20:57.439Z,101326.28
2018-09-19T08:24:02.067Z,101315.94
2018-09-19T08:27:06.594Z,101314.38
2018-09-19T08:30:11.182Z,101313.08
2018-09-19T08:33:15.952Z,101313.41
2018-09-19T08:36:20.498Z,101320.41
2018-09-19T08:39:24.901Z,101330.86
2018-09-19T08:42:29.753Z,101310.99
2018-09-19T08:45:34.090Z,101305.27
2018-09-19T08:48:38.406Z,101311.67
2018-09-19T08:51:43.646Z,101311.42
2018-09-19T08:54:47.897Z,101310.89
2018-09-19T08:57:52.168Z,101313.70
2018-09-19T09:00:56.394Z,101320.34
2018-09-19T09:04:00.629Z,101317.31
2018-09-19T09:07:04.896Z,101320.38
2018-09-19T09:10:09.144Z,101315.20
2018-09-19T09:13:13.344Z,101321.52
2018-09-19T09:16:17.610Z,101319.33
2018-09-19T09:19:21.851Z,101322.64
2018-09-19T09:22:26.117Z,101316.84
2018-09-19T09:25:30.698Z,101327.61
2018-09-19T09:28:35.014Z,101318.23
2018-09-19T09:31:39.236Z,101330.62
2018-09-19T09:34:43.502Z,101331.75
2018-09-19T09:37:48.716Z,101324.55
2018-09-19T09:40:52.987Z,101320.11
2018-09-19T09:43:57.216Z,101341.66
2018-09-19T09:47:01.454Z,101333.95
2018-09-19T09:50:05.818Z,101333.38
2018-09-19T09:53:13.669Z,101331.14
2018-09-19T09:56:17.853Z,101321.72
2018-09-19T09:59:22.137Z,101330.54
2018-09-19T10:02:26.406Z,101329.71
2018-09-19T10:05:30.621Z,101328.03
2018-09-19T10:08:34.816Z,101321.11
2018-09-19T10:11:39.049Z,101314.73
2018-09-19T10:14:43.290Z,101309.23
2018-09-19T10:17:47.464Z,101292.94
2018-09-19T10:20:51.665Z,101293.17
2018-09-19T10:23:55.865Z,101298.70
2018-09-19T10:27:00.091Z,101287.63
2018-09-19T10:30:04.309Z,101281.84
2018-09-19T10:33:08.516Z,101286.59
2018-09-19T10:36:12.728Z,101279.95
2018-09-19T10:39:16.921Z,101290.72
2018-09-19T10:42:21.141Z,101291.80
2018-09-19T10:45:25.325Z,101280.96
2018-09-19T10:48:29.584Z,101283.11
2018-09-19T10:51:33.758Z,101258.50
2018-09-19T10:54:38.037Z,101254.92
2018-09-19T10:57:42.213Z,101262.66
2018-09-19T11:00:46.430Z,101251.82
2018-09-19T11:03:50.648Z,101249.87
2018-09-19T11:06:54.851Z,101263.39
2018-09-19T11:09:59.092Z,101249.23
2018-09-19T11:13:03.285Z,101251.98
2018-09-19T11:16:07.502Z,101255.81
2018-09-19T11:19:11.705Z,101261.83
2018-09-19T11:22:15.920Z,101257.10
2018-09-19T11:25:20.109Z,101252.14
2018-09-19T11:28:24.398Z,101259.61
2018-09-19T11:31:28.599Z,101255.42
2018-09-19T11:34:32.817Z,101267.27
2018-09-19T11:37:37.030Z,101263.63
2018-09-19T11:40:41.277Z,101263.31
2018-09-19T11:43:45.473Z,101267.14
2018-09-19T11:46:49.684Z,101256.02
2018-09-19T11:49:53.893Z,101261.20
2018-09-19T11:52:58.116Z,101259.00
2018-09-19T11:56:02.317Z,101255.94
2018-09-19T11:59:06.765Z,101255.39
2018-09-19T12:02:10.993Z,101249.02
2018-09-19T12:05:15.286Z,101246.78
2018-09-19T12:08:20.084Z,101243.09
2018-09-19T12:11:24.313Z,101238.89
2018-09-19T12:14:28.526Z,101239.40
2018-09-19T12:17:32.761Z,101239.31
2018-09-19T12:20:37.022Z,101227.59
2018-09-19T12:23:41.285Z,101229.13
2018-09-19T12:26:46.533Z,101230.51
2018-09-19T12:29:50.798Z,101218.03
2018-09-19T12:32:55.060Z,101212.05
2018-09-19T12:35:59.285Z,101216.70
2018-09-19T12:39:03.627Z,101202.64
2018-09-19T12:42:07.874Z,101202.92
2018-09-19T12:45:12.142Z,101200.05
2018-09-19T12:48:17.134Z,101192.20
2018-09-19T12:51:21.453Z,101200.91
2018-09-19T12:54:25.688Z,101190.23
2018-09-19T12:57:29.957Z,101188.24
2018-09-19T13:00:34.182Z,101178.33
2018-09-19T13:03:38.545Z,101176.94
2018-09-19T13:06:42.813Z,101166.70
2018-09-19T13:09:47.052Z,101165.84
2018-09-19T13:12:51.290Z,101155.00
2018-09-19T13:15:55.533Z,101147.92
2018-09-19T13:18:59.773Z,101144.12
2018-09-19T13:22:03.980Z,101130.66
2018-09-19T13:25:08.313Z,101140.52
2018-09-19T13:28:12.550Z,101125.01
2018-09-19T13:31:16.814Z,101115.31
2018-09-19T13:34:21.066Z,101112.42
2018-09-19T13:37:25.305Z,101110.60
2018-09-19T13:40:29.543Z,101105.70
2018-09-19T13:43:33.789Z,101102.17
2018-09-19T13:46:37.997Z,101089.85
2018-09-19T13:49:46.721Z,101103.23
2018-09-19T13:52:50.893Z,101081.70
2018-09-19T13:55:55.509Z,101097.66
2018-09-19T13:58:59.799Z,101093.03
2018-09-19T14:02:03.973Z,101096.42
2018-09-19T14:05:08.208Z,101093.84
2018-09-19T14:08:12.417Z,101097.67
2018-09-19T14:11:16.632Z,101090.05
2018-09-19T14:14:20.858Z,101088.99
2018-09-19T14:17:25.085Z,101095.16
2018-09-19T14:20:29.275Z,101086.06
2018-09-19T14:23:33.488Z,101080.81
2018-09-19T14:26:37.689Z,101087.45
2018-09-19T14:29:41.914Z,101085.28
2018-09-19T14:32:46.147Z,101091.45
2018-09-19T14:35:52.096Z,101106.81
2018-09-19T14:38:56.176Z,101093.83
2018-09-19T14:42:00.433Z,101095.21
2018-09-19T14:45:05.329Z,101088.27
2018-09-19T14:48:09.581Z,101095.06
2018-09-19T14:51:13.774Z,101084.42
2018-09-19T14:54:17.999Z,101085.20
2018-09-19T14:57:22.207Z,101086.34
2018-09-19T15:00:26.453Z,101087.20
2018-09-19T15:03:30.592Z,101104.70
2018-09-19T15:06:34.793Z,101105.89
2018-09-19T15:09:39.013Z,101115.48
2018-09-19T15:12:43.205Z,101123.45
2018-09-19T15:15:47.430Z,101131.44
2018-09-19T15:18:51.646Z,101138.45
2018-09-19T15:21:55.849Z,101138.61
2018-09-19T15:25:00.061Z,101140.58
2018-09-19T15:28:04.301Z,101152.41
2018-09-19T15:31:08.493Z,101153.69
2018-09-19T15:34:12.701Z,101152.70
2018-09-19T15:37:16.897Z,101152.77
2018-09-19T15:40:21.114Z,101163.09
2018-09-19T15:43:25.331Z,101158.70
2018-09-19T15:46:29.550Z,101160.14
2018-09-19T15:49:33.870Z,101163.52
2018-09-19T15:52:38.060Z,101161.89
2018-09-19T15:55:42.307Z,101161.89
2018-09-19T15:58:46.532Z,101164.66
2018-09-19T16:01:50.764Z,101177.65
2018-09-19T16:04:55.288Z,101160.53
2018-09-19T16:07:59.578Z,101165.28
2018-09-19T16:11:03.849Z,101161.16
2018-09-19T16:14:08.282Z,101163.94
2018-09-19T16:17:12.598Z,101157.86
2018-09-19T16:20:17.477Z,101162.58
2018-09-19T16:23:21.909Z,101167.53
2018-09-19T16:26:26.181Z,101172.25
2018-09-19T16:29:30.806Z,101169.22
2018-09-19T16:32:35.749Z,101169.22
2018-09-19T16:35:40.508Z,101163.42
2018-09-19T16:38:46.120Z,101165.36
2018-09-19T16:41:50.300Z,101159.56
2018-09-19T16:44:54.529Z,101159.58
2018-09-19T16:47:58.741Z,101161.49
2018-09-19T16:51:02.941Z,101162.59
2018-09-19T16:54:07.120Z,101165.13
2018-09-19T16:57:11.383Z,101170.09
2018-09-19T17:00:16.436Z,101165.42
2018-09-19T17:03:20.772Z,101162.95
2018-09-19T17:06:24.973Z,101167.94
2018-09-19T17:09:29.185Z,101165.73
2018-09-19T17:12:33.394Z,101154.16
2018-09-19T17:15:37.733Z,101156.67
2018-09-19T17:18:41.897Z,101160.82
2018-09-19T17:21:46.121Z,101158.06
2018-09-19T17:24:50.326Z,101169.95
2018-09-19T17:27:54.521Z,101161.39
2018-09-19T17:30:58.769Z,101165.81
2018-09-19T17:34:03.064Z,101169.13
2018-09-19T17:37:07.432Z,101171.64
2018-09-19T17:40:11.624Z,101168.33
2018-09-19T17:43:15.849Z,101166.67
2018-09-19T17:46:20.065Z,101165.02
2018-09-19T17:49:24.269Z,101163.38
2018-09-19T17:52:28.477Z,101166.39
2018-09-19T17:55:32.709Z,101171.66
2018-09-19T17:58:36.924Z,101170.01
2018-09-19T18:01:41.170Z,101176.33
2018-09-19T18:04:45.397Z,101172.47
2018-09-19T18:07:49.619Z,101169.43
2018-09-19T18:10:53.841Z,101178.52
2018-09-19T18:13:58.049Z,101180.73
2018-09-19T18:17:02.326Z,101183.23
2018-09-19T18:20:06.520Z,101185.69
2018-09-19T18:23:10.745Z,101181.84
2018-09-19T18:26:14.945Z,101185.42
2018-09-19T18:29:19.146Z,101194.52
2018-09-19T18:32:23.379Z,101198.66
2018-09-19T18:35:27.590Z,101194.83
2018-09-19T18:38:31.815Z,101192.31
2018-09-19T18:41:36.622Z,101191.21
2018-09-19T18:44:40.825Z,101203.41
2018-09-19T18:47:45.026Z,101197.59
2018-09-19T18:50:49.246Z,101197.02
2018-09-19T18:53:53.496Z,101192.88
2018-09-19T18:56:57.735Z,101197.83
2018-09-19T19:00:01.925Z,101193.70
2018-09-19T19:03:06.466Z,101194.02
2018-09-19T19:06:10.665Z,101196.74
2018-09-19T19:09:14.864Z,101195.09
2018-09-19T19:12:19.161Z,101198.70
2018-09-19T19:15:23.354Z,101199.22
2018-09-19T19:18:27.563Z,101190.41
2018-09-19T19:21:31.974Z,101187.95
2018-09-19T19:24:36.203Z,101193.45
2018-09-19T19:27:40.405Z,101198.70
2018-09-19T19:30:44.670Z,101190.67
2018-09-19T19:33:48.830Z,101194.55
2018-09-19T19:36:53.039Z,101195.94
2018-09-19T19:39:57.250Z,101197.28
2018-09-19T19:43:01.469Z,101190.13
2018-09-19T19:46:05.685Z,101193.70
2018-09-19T19:49:09.886Z,101194.54
2018-09-19T19:52:14.090Z,101194.52
2018-09-19T19:55:18.293Z,101190.94
2018-09-19T19:58:22.510Z,101194.78
2018-09-19T20:01:26.708Z,101190.09
2018-09-19T20:04:30.889Z,101191.48
2018-09-19T20:07:35.121Z,101179.59
2018-09-19T20:10:39.364Z,101188.98
2018-09-19T20:13:43.550Z,101176.30
2018-09-19T20:16:47.770Z,101166.63
2018-09-19T20:19:51.976Z,101174.61
2018-09-19T20:22:56.164Z,101181.80
2018-09-19T20:26:00.401Z,101175.19
2018-09-19T20:29:04.645Z,101190.38
2018-09-19T20:32:08.829Z,101178.77
2018-09-19T20:35:13.077Z,101176.57
2018-09-19T20:38:17.288Z,101172.16
2018-09-19T20:41:21.525Z,101164.41
2018-09-19T20:44:25.713Z,101168.03
2018-09-19T20:47:29.916Z,101175.77
2018-09-19T20:50:34.100Z,101178.78
2018-09-19T20:53:38.388Z,101187.06
2018-09-19T20:56:42.598Z,101180.45
2018-09-19T20:59:46.794Z,101168.55
2018-09-19T21:02:51.014Z,101171.88
2018-09-19T21:05:55.212Z,101165.52
2018-09-19T21:08:59.412Z,101170.25
2018-09-19T21:12:03.624Z,101175.48
2018-09-19T21:15:07.850Z,101173.28
2018-09-19T21:18:12.057Z,101171.91
2018-09-19T21:21:16.272Z,101174.67
2018-09-19T21:24:20.509Z,101170.55
2018-09-19T21:27:24.725Z,101170.83
2018-09-19T21:30:28.928Z,101173.58
2018-09-19T21:33:33.109Z,101172.77
2018-09-19T21:36:37.317Z,101184.61
2018-09-19T21:39:41.525Z,101179.63
2018-09-19T21:42:45.737Z,101178.25
2018-09-19T21:45:49.930Z,101180.19
2018-09-19T21:48:54.122Z,101179.08
2018-09-19T21:51:58.304Z,101167.22
2018-09-19T21:55:02.858Z,101180.17
2018-09-19T21:58:07.164Z,101177.41
2018-09-19T22:01:11.805Z,101177.69
2018-09-19T22:04:16.041Z,101174.10
2018-09-19T22:07:20.246Z,101179.08
2018-09-19T22:10:24.445Z,101182.66
2018-09-19T22:13:28.696Z,101183.50
2018-09-19T22:16:32.920Z,101170.27
2018-09-19T22:19:37.254Z,101176.31
2018-09-19T22:22:41.461Z,101171.91
2018-09-19T22:25:45.685Z,101163.89
2018-09-19T22:28:49.877Z,101175.22
2018-09-19T22:31:54.093Z,101168.30
2018-09-19T22:34:58.296Z,101155.91
2018-09-19T22:38:02.514Z,101156.19
2018-09-19T22:41:06.793Z,101162.23
2018-09-19T22:44:11.010Z,101160.86
2018-09-19T22:47:15.204Z,101157.81
2018-09-19T22:50:19.413Z,101150.93
2018-09-19T22:53:23.626Z,101168.02
2018-09-19T22:56:27.856Z,101160.31
2018-09-19T22:59:32.137Z,101151.76
2018-09-19T23:02:36.333Z,101156.16
2018-09-19T23:05:40.524Z,101158.11
2018-09-19T23:08:44.724Z,101161.12
2018-09-19T23:11:48.941Z,101157.82
2018-09-19T23:14:53.141Z,101158.07
2018-09-19T23:17:57.368Z,101140.17
2018-09-19T23:21:01.576Z,101149.55
2018-09-19T23:24:05.776Z,101154.22
2018-09-19T23:27:09.965Z,101143.74
2018-09-19T23:30:14.164Z,101155.58
2018-09-19T23:33:18.377Z,101149.80
2018-09-19T23:36:22.568Z,101144.29
2018-09-19T23:39:26.817Z,101142.89
2018-09-19T23:42:31.414Z,101146.47
2018-09-19T23:45:35.624Z,101143.69
2018-09-19T23:48:39.807Z,101156.38
2018-09-19T23:51:44.018Z,101146.15
2018-09-19T23:54:48.241Z,101147.80
2018-09-19T23:57:52.483Z,101142.30
